WetterOnline ( https://www.wetteronline.de )

Wetter aktuell Ulm

Aktuelles Wetter: Ulm-Mähringen (592m)

6-stündlich | Neueste Meldungen
Ortszeit Temperatur Wetter
So, 02.10. 2:00 10.2° C Regen
Sa, 01.10. 20:00 10.0° C wolkig
Sa, 01.10. 14:00 8.9° C Regen
Sa, 01.10. 8:00 7.2° C bewölkt
Sa, 01.10. 2:00 6.0° C bedeckt
Fr, 30.09. 20:00 6.3° C wolkenlos
Fr, 30.09. 14:00 8.0° C bedeckt
Fr, 30.09. 8:00 3.6° C Nebel
Ortszeit Temperatur Wetter
So, 02.10. 5:30 10.2° C bedeckt
So, 02.10. 5:20 10.2° C bedeckt
So, 02.10. 5:10 10.4° C bedeckt
So, 02.10. 5:00 10.1° C bewölkt
So, 02.10. 4:50 10.1° C bewölkt
So, 02.10. 4:40 10.1° C bedeckt
So, 02.10. 4:30 9.9° C bedeckt
So, 02.10. 4:00 9.9° C wolkig
So, 02.10. 3:30 10.1° C wolkig
So, 02.10. 3:00 10.7° C leichter Regen
So, 02.10. 2:30 10.4° C bewölkt
Ortszeit Relative Feuchte Sichtweite
So, 02.10. 2:00 95% 2.5 km
Sa, 01.10. 20:00 92% >70 km
Sa, 01.10. 14:00 87% 60 km
Sa, 01.10. 8:00 94% 14 km
Sa, 01.10. 2:00 96% 4.6 km
Fr, 30.09. 20:00 95% 7 km
Fr, 30.09. 14:00 91% 13 km
Fr, 30.09. 8:00 100% 100 m
Ortszeit Relative Feuchte Sichtweite
So, 02.10. 5:30 94% 40 km
So, 02.10. 5:20 94% -
So, 02.10. 5:10 93% -
So, 02.10. 5:00 94% 50 km
So, 02.10. 4:50 94% -
So, 02.10. 4:40 94% -
So, 02.10. 4:30 94% 40 km
So, 02.10. 4:00 93% 40 km
So, 02.10. 3:30 94% 50 km
So, 02.10. 3:00 91% 19 km
So, 02.10. 2:30 93% 50 km
Ortszeit Niederschlagsmenge Niederschlagsart
So, 02.10. 2:00 3 l/m2 in 6 Std. Regen
Sa, 01.10. 20:00 3 l/m2 in 12 Std. Regen
Sa, 01.10. 14:00 3 l/m2 in 6 Std. Regen
Sa, 01.10. 8:00 0.0 l/m2 in 12 Std. -
Sa, 01.10. 2:00 0.0 l/m2 in 6 Std. -
Fr, 30.09. 20:00 0.1 l/m2 in 12 Std. -
Fr, 30.09. 14:00 0.1 l/m2 in 6 Std. -
Fr, 30.09. 8:00 0.0 l/m2 in 12 Std. -
Ortszeit Niederschlagsmenge Niederschlagsart
So, 02.10. 5:30 0.0 l/m2 in 1 Std. -
So, 02.10. 5:20 keine Meldung -
So, 02.10. 5:10 keine Meldung -
So, 02.10. 5:00 0.0 l/m2 in 1 Std. Regen
So, 02.10. 4:50 keine Meldung -
So, 02.10. 4:40 keine Meldung -
So, 02.10. 4:30 0.0 l/m2 in 1 Std. -
So, 02.10. 4:00 <0.05 l/m2 in 1 Std. Regen
So, 02.10. 3:30 <0.05 l/m2 in 1 Std. Schneeregen
So, 02.10. 3:00 0.6 l/m2 in 1 Std. Regen
So, 02.10. 2:30 0.6 l/m2 in 1 Std. Schneeregen
Ortszeit Stärke Spitze Richtung
km/h Bft. km/h Grad Sektor
So, 02.10. 2:00 9 2 26 240° SW
Sa, 01.10. 20:00 11 2 36 240° SW
Sa, 01.10. 14:00 18 3 43 230° SW
Sa, 01.10. 8:00 14 3 32 220° SW
Sa, 01.10. 2:00 7 2 11 220° SW
Fr, 30.09. 20:00 0 0 11 - -
Fr, 30.09. 14:00 6 1 11 120° SO
Fr, 30.09. 8:00 4 1 11 20° N
Ortszeit Stärke Spitze Richtung
km/h Bft. km/h Grad Sektor
So, 02.10. 5:30 14 3 22 230° SW
So, 02.10. 5:20 14 3 - 230° SW
So, 02.10. 5:10 13 3 - 240° SW
So, 02.10. 5:00 14 3 25 240° SW
So, 02.10. 4:50 14 3 - 240° SW
So, 02.10. 4:40 14 3 - 230° SW
So, 02.10. 4:30 15 3 24 220° SW
So, 02.10. 4:00 18 3 29 220° SW
So, 02.10. 3:30 9 2 26 230° SW
So, 02.10. 3:00 15 3 22 250° W
So, 02.10. 2:30 14 3 22 220° SW
Ortszeit Untergrenze Bedeckung Gattung
total tief tief mittel hoch
So, 02.10. 2:00 300 m 8/8 8/8 - - -
Sa, 01.10. 20:00 240 m 8/8 1/8 - - -
Sa, 01.10. 14:00 750 m 7/8 7/8 - - -
Sa, 01.10. 8:00 210 m 8/8 4/8 - - -
Sa, 01.10. 2:00 1500 m 8/8 8/8 - - -
Fr, 30.09. 20:00 - 0/8 0/8 - - -
Fr, 30.09. 14:00 150 m 8/8 8/8 - - -
Fr, 30.09. 8:00 <30 m 8/8 0/8 - - -
Ortszeit Bedeckungsgrad in Achtel und Wolkenuntergrenze
So, 02.10. 5:30 4(1500m) 8(2700m)
So, 02.10. 5:20 4(1500m) 8(2700m)
So, 02.10. 5:10 8
So, 02.10. 5:00 4(1500m) 8(3300m) 8(5100m)
So, 02.10. 4:50 4(1500m) 8(3300m) 8(5100m)
So, 02.10. 4:40 8
So, 02.10. 4:30 8(3600m) 8(4800m) 8(6000m)
So, 02.10. 4:00 1(1800m) 8(3900m) 8(6000m)
So, 02.10. 3:30 2(1320m) 4(3000m) 8(4200m)
So, 02.10. 3:00 4(1500m) 5(2100m) 6(3000m)
So, 02.10. 2:30 2(480m) 5(1410m) 7(1500m)
Ortszeit Luftdruck NN (hPa) Tendenz (hPa in 3 Std.)
So, 02.10. 2:00 1021 + 1,9
Sa, 01.10. 20:00 1016 + 1,7
Sa, 01.10. 14:00 1014 + 0,6
Sa, 01.10. 8:00 1015 - 0,4
Sa, 01.10. 2:00 1016 + 1,0
Fr, 30.09. 20:00 1015 + 0,9
Fr, 30.09. 14:00 1014 + 1,4
Fr, 30.09. 8:00 1012 + 1,6
Ortszeit Luftdruck NN (hPa) Tendenz (hPa in 3 Std.)
So, 02.10. 5:30 1021 + 0,2
So, 02.10. 5:20 1021 keine Meldung
So, 02.10. 5:10 1021 keine Meldung
So, 02.10. 5:00 1021 + 0,6
So, 02.10. 4:50 1021 keine Meldung
So, 02.10. 4:40 1021 keine Meldung
So, 02.10. 4:30 1021 + 0,7
So, 02.10. 4:00 1021 + 0,9
So, 02.10. 3:30 1021 + 1,2
So, 02.10. 3:00 1021 + 1,3
So, 02.10. 2:30 1021 + 1,9
Ortszeit Schneehöhe (cm)
So, 02.10. 2:00 0
Sa, 01.10. 20:00 0
Sa, 01.10. 14:00 0
Sa, 01.10. 8:00 0
Sa, 01.10. 2:00 0
Fr, 30.09. 20:00 0
Fr, 30.09. 14:00 0
Fr, 30.09. 8:00 0
Ortszeit Schneehöhe (cm)
So, 02.10. 5:30 0
So, 02.10. 5:20 0
So, 02.10. 5:10 0
So, 02.10. 5:00 0
So, 02.10. 4:50 0
So, 02.10. 4:40 0
So, 02.10. 4:30 0
So, 02.10. 4:00 0
So, 02.10. 3:30 0
So, 02.10. 3:00 0
So, 02.10. 2:30 0
Link zu dieser Seite / Seite empfehlen

Das Wetter in ...